createdAt,value
2023-01-02T00:01:30.993Z,100241.31
2023-01-02T00:03:58.584Z,100251.75
2023-01-02T00:06:26.098Z,100244.44
2023-01-02T00:08:52.937Z,100237.19
2023-01-02T00:11:19.995Z,100235.91
2023-01-02T00:13:46.809Z,100233.53
2023-01-02T00:16:16.091Z,100238.50
2023-01-02T00:18:42.944Z,100243.25
2023-01-02T00:21:10.100Z,100238.81
2023-01-02T00:23:37.630Z,100229.19
2023-01-02T00:26:06.944Z,100225.78
2023-01-02T00:28:34.028Z,100223.72
2023-01-02T00:31:15.024Z,100210.44
2023-01-02T00:33:42.522Z,100213.84
2023-01-02T00:36:11.471Z,100208.63
2023-01-02T00:38:39.148Z,100200.81
2023-01-02T00:41:06.853Z,100205.00
2023-01-02T00:43:34.202Z,100196.91
2023-01-02T00:46:06.163Z,100194.56
2023-01-02T00:48:38.188Z,100190.13
2023-01-02T00:51:05.748Z,100195.91
2023-01-02T00:53:32.530Z,100196.91
2023-01-02T00:56:02.999Z,100199.28
2023-01-02T00:58:29.841Z,100190.41
2023-01-02T01:00:56.719Z,100184.16
2023-01-02T01:03:23.581Z,100181.03
2023-01-02T01:05:50.491Z,100182.28
2023-01-02T01:08:17.461Z,100181.25
2023-01-02T01:10:44.303Z,100182.28
2023-01-02T01:13:11.092Z,100183.53
2023-01-02T01:15:41.004Z,100188.22
2023-01-02T01:18:07.791Z,100186.47
2023-01-02T01:21:26.056Z,100192.16
2023-01-02T01:23:55.321Z,100180.94
2023-01-02T01:26:24.040Z,100178.88
2023-01-02T01:28:55.325Z,100175.72
2023-01-02T01:31:24.081Z,100171.84
2023-01-02T01:33:51.336Z,100170.28
2023-01-02T01:36:24.991Z,100170.28
2023-01-02T01:38:52.270Z,100169.22
2023-01-02T01:41:22.031Z,100167.88
2023-01-02T01:43:51.917Z,100165.53
2023-01-02T01:46:25.422Z,100160.53
2023-01-02T01:49:09.066Z,100168.38
2023-01-02T01:51:52.993Z,100172.56
2023-01-02T01:54:29.407Z,100167.34
2023-01-02T01:57:03.050Z,100152.72
2023-01-02T01:59:30.572Z,100150.91
2023-01-02T02:02:23.435Z,100146.69
2023-01-02T02:04:51.719Z,100140.69
2023-01-02T02:10:12.342Z,100131.00
2023-01-02T02:12:39.192Z,100139.13
2023-01-02T02:15:13.807Z,100137.31
2023-01-02T02:17:55.100Z,100142.78
2023-01-02T02:20:37.108Z,100140.41
2023-01-02T02:23:48.339Z,100138.56
2023-01-02T02:26:37.388Z,100123.16
2023-01-02T02:29:22.610Z,100132.03
2023-01-02T02:32:10.965Z,100131.78
2023-01-02T02:35:18.041Z,100123.09
2023-01-02T02:38:12.956Z,100118.13
2023-01-02T02:41:04.627Z,100111.63
2023-01-02T02:43:52.106Z,100112.41
2023-01-02T02:46:30.322Z,100111.06
2023-01-02T02:49:21.851Z,100110.84
2023-01-02T02:52:06.334Z,100115.25
2023-01-02T02:54:44.518Z,100105.63
2023-01-02T02:57:38.831Z,100106.13
2023-01-02T03:00:10.336Z,100092.03
2023-01-02T03:02:37.750Z,100087.06
2023-01-02T03:05:07.880Z,100089.91
2023-01-02T03:08:16.593Z,100084.69
2023-01-02T03:11:02.849Z,100089.13
2023-01-02T03:13:48.336Z,100093.28
2023-01-02T03:16:30.326Z,100086.50
2023-01-02T03:19:04.625Z,100089.13
2023-01-02T03:22:17.137Z,100086.50
2023-01-02T03:24:48.770Z,100081.28
2023-01-02T03:27:22.596Z,100094.59
2023-01-02T03:30:20.826Z,100094.03
2023-01-02T03:33:12.680Z,100091.66
2023-01-02T03:35:47.992Z,100098.69
2023-01-02T03:38:19.805Z,100099.19
2023-01-02T03:40:54.900Z,100098.06
2023-01-02T03:43:27.595Z,100099.03
2023-01-02T03:46:02.363Z,100088.34
2023-01-02T03:48:45.171Z,100091.22
2023-01-02T03:51:12.551Z,100087.31
2023-01-02T03:53:40.528Z,100086.22
2023-01-02T03:56:34.031Z,100087.56
2023-01-02T03:59:10.495Z,100085.53
2023-01-02T04:01:49.861Z,100085.75
2023-01-02T04:04:54.626Z,100082.63
2023-01-02T04:07:37.007Z,100087.81
2023-01-02T04:10:11.242Z,100091.44
2023-01-02T04:12:42.592Z,100092.00
2023-01-02T04:15:12.974Z,100091.22
2023-01-02T04:17:55.079Z,100086.22
2023-01-02T04:20:33.840Z,100085.44
2023-01-02T04:23:06.048Z,100089.88
2023-01-02T04:25:47.790Z,100087.00
2023-01-02T04:31:23.044Z,100088.31
2023-01-02T04:33:57.771Z,100091.69
2023-01-02T04:36:24.775Z,100096.91
2023-01-02T04:38:51.724Z,100085.22
2023-01-02T04:41:24.443Z,100082.84
2023-01-02T04:43:51.245Z,100088.84
2023-01-02T04:46:21.813Z,100086.47
2023-01-02T04:48:49.120Z,100081.50
2023-01-02T04:51:17.305Z,100089.88
2023-01-02T04:53:47.773Z,100094.78
2023-01-02T04:56:14.961Z,100093.44
2023-01-02T04:58:43.890Z,100094.00
2023-01-02T05:01:13.181Z,100090.19
2023-01-02T05:03:41.391Z,100094.16
2023-01-02T05:06:08.876Z,100087.69
2023-01-02T05:08:36.728Z,100094.72
2023-01-02T05:11:13.344Z,100098.03
2023-01-02T05:13:41.536Z,100100.09
2023-01-02T05:16:09.203Z,100096.75
2023-01-02T05:18:36.106Z,100096.69
2023-01-02T05:21:09.956Z,100100.88
2023-01-02T05:23:37.414Z,100104.03
2023-01-02T05:26:10.206Z,100101.41
2023-01-02T05:28:38.868Z,100100.63
2023-01-02T05:31:05.929Z,100095.41
2023-01-02T05:33:32.767Z,100092.34
2023-01-02T05:36:00.360Z,100091.28
2023-01-02T05:38:27.989Z,100096.50
2023-01-02T05:41:03.321Z,100097.81
2023-01-02T05:43:33.097Z,100099.38
2023-01-02T05:46:09.641Z,100105.84
2023-01-02T05:48:36.996Z,100106.41
2023-01-02T05:51:05.689Z,100112.88
2023-01-02T05:53:33.009Z,100118.88
2023-01-02T05:56:08.652Z,100108.44
2023-01-02T05:58:37.718Z,100112.09
2023-01-02T06:01:09.827Z,100113.91
2023-01-02T06:03:37.853Z,100107.91
2023-01-02T06:06:09.720Z,100108.94
2023-01-02T06:08:38.302Z,100110.28
2023-01-02T06:11:08.060Z,100098.28
2023-01-02T06:13:37.960Z,100106.88
2023-01-02T06:16:07.367Z,100100.25
2023-01-02T06:18:36.973Z,100099.78
2023-01-02T06:21:08.416Z,100108.63
2023-01-02T06:23:36.024Z,100100.56
2023-01-02T06:26:11.215Z,100105.22
2023-01-02T06:28:39.324Z,100104.22
2023-01-02T06:31:11.673Z,100106.25
2023-01-02T06:33:39.385Z,100103.91
2023-01-02T06:36:12.731Z,100117.94
2023-01-02T06:38:39.934Z,100122.38
2023-01-02T06:41:09.075Z,100118.97
2023-01-02T06:43:42.011Z,100126.22
2023-01-02T06:46:11.958Z,100118.66
2023-01-02T06:48:39.988Z,100113.69
2023-01-02T06:51:15.848Z,100112.88
2023-01-02T06:53:45.996Z,100105.06
2023-01-02T06:56:16.233Z,100104.53
2023-01-02T06:58:44.034Z,100109.66
2023-01-02T07:01:22.677Z,100103.66
2023-01-02T07:03:50.560Z,100113.06
2023-01-02T07:06:20.437Z,100107.28
2023-01-02T07:08:47.788Z,100106.19
2023-01-02T07:11:40.099Z,100117.53
2023-01-02T07:14:31.967Z,100117.53
2023-01-02T07:17:00.722Z,100111.88
2023-01-02T07:19:28.028Z,100110.28
2023-01-02T07:21:55.536Z,100107.69
2023-01-02T07:24:23.016Z,100101.91
2023-01-02T07:26:50.440Z,100115.19
2023-01-02T07:29:17.170Z,100120.72
2023-01-02T07:31:45.571Z,100115.97
2023-01-02T07:34:13.494Z,100116.66
2023-01-02T07:36:40.398Z,100126.41
2023-01-02T07:39:07.510Z,100132.94
2023-01-02T07:41:35.579Z,100127.09
2023-01-02T07:44:12.776Z,100125.03
2023-01-02T07:46:40.731Z,100120.63
2023-01-02T07:49:07.621Z,100119.59
2023-01-02T07:51:35.517Z,100125.84
2023-01-02T07:54:03.003Z,100129.53
2023-01-02T07:56:54.992Z,100119.91
2023-01-02T07:59:23.051Z,100121.72
2023-01-02T08:01:50.575Z,100118.91
2023-01-02T08:04:17.797Z,100117.06
2023-01-02T08:06:50.884Z,100112.66
2023-01-02T08:09:18.008Z,100106.66
2023-01-02T08:11:46.281Z,100109.25
2023-01-02T08:14:17.094Z,100107.91
2023-01-02T08:17:14.179Z,100110.34
2023-01-02T08:22:32.549Z,100120.72
2023-01-02T08:24:59.301Z,100118.59
2023-01-02T08:27:29.991Z,100127.97
2023-01-02T08:29:57.640Z,100124.66
2023-01-02T08:32:24.564Z,100120.72
2023-01-02T08:34:52.764Z,100127.50
2023-01-02T08:37:19.573Z,100134.84
2023-01-02T08:39:46.385Z,100133.81
2023-01-02T08:42:14.144Z,100129.63
2023-01-02T08:44:40.861Z,100121.03
2023-01-02T08:47:09.522Z,100127.03
2023-01-02T08:49:40.081Z,100128.38
2023-01-02T08:52:07.545Z,100138.81
2023-01-02T08:54:35.561Z,100131.00
2023-01-02T08:57:02.630Z,100136.44
2023-01-02T08:59:30.510Z,100139.03
2023-01-02T09:04:50.165Z,100139.50
2023-01-02T09:07:17.704Z,100144.50
2023-01-02T09:09:45.564Z,100149.47
2023-01-02T09:12:37.038Z,100145.59
2023-01-02T09:15:05.819Z,100147.41
2023-01-02T09:17:32.872Z,100133.03
2023-01-02T09:19:59.668Z,100136.09
2023-01-02T09:22:31.076Z,100144.25
2023-01-02T09:25:24.510Z,100132.47
2023-01-02T09:27:53.652Z,100132.16
2023-01-02T09:30:20.620Z,100135.88
2023-01-02T09:32:49.032Z,100143.34
2023-01-02T09:35:16.910Z,100135.31
2023-01-02T09:37:44.469Z,100137.94
2023-01-02T09:40:13.832Z,100130.09
2023-01-02T09:42:42.327Z,100133.97
2023-01-02T09:45:10.014Z,100141.31
2023-01-02T09:47:43.023Z,100133.28
2023-01-02T09:50:14.979Z,100128.53
2023-01-02T09:52:48.797Z,100131.16
2023-01-02T09:55:24.903Z,100122.28
2023-01-02T09:58:08.319Z,100121.81
2023-01-02T10:00:37.436Z,100114.53
2023-01-02T10:03:23.070Z,100109.59
2023-01-02T10:06:15.645Z,100098.91
2023-01-02T10:12:25.145Z,100098.59
2023-01-02T10:15:00.691Z,100086.13
2023-01-02T10:17:37.136Z,100083.50
2023-01-02T10:20:22.073Z,100080.34
2023-01-02T10:23:01.871Z,100089.19
2023-01-02T10:26:12.821Z,100082.16
2023-01-02T10:28:58.024Z,100070.91
2023-01-02T10:31:55.932Z,100072.47
2023-01-02T10:34:27.023Z,100071.22
2023-01-02T10:36:53.842Z,100060.47
2023-01-02T10:39:26.022Z,100061.00
2023-01-02T10:41:56.569Z,100059.97
2023-01-02T10:44:34.655Z,100061.78
2023-01-02T10:47:14.252Z,100067.47
2023-01-02T10:49:46.997Z,100063.06
2023-01-02T10:52:54.360Z,100063.06
2023-01-02T10:55:35.041Z,100062.81
2023-01-02T10:58:23.609Z,100048.75
2023-01-02T11:00:54.125Z,100047.75
2023-01-02T11:03:24.237Z,100043.81
2023-01-02T11:05:55.525Z,100047.19
2023-01-02T11:08:33.488Z,100048.22
2023-01-02T11:11:00.489Z,100044.59
2023-01-02T11:13:46.499Z,100041.09
2023-01-02T11:16:18.098Z,100042.44
2023-01-02T11:18:54.489Z,100038.28
2023-01-02T11:21:36.672Z,100040.88
2023-01-02T11:24:11.665Z,100036.19
2023-01-02T11:26:42.019Z,100033.38
2023-01-02T11:29:16.035Z,100040.09
2023-01-02T11:31:57.525Z,100031.97
2023-01-02T11:34:37.896Z,100032.97
2023-01-02T11:37:34.232Z,100026.13
2023-01-02T11:40:24.369Z,100033.28
2023-01-02T11:42:53.878Z,100021.59
2023-01-02T11:45:21.495Z,100012.53
2023-01-02T11:47:53.020Z,100014.34
2023-01-02T11:50:26.703Z,100021.84
2023-01-02T11:53:12.962Z,100019.00
2023-01-02T11:55:49.493Z,100020.50
2023-01-02T11:59:16.378Z,100019.94
2023-01-02T12:02:02.372Z,100014.72
2023-01-02T12:04:30.075Z,100013.16
2023-01-02T12:07:03.563Z,100015.56
2023-01-02T12:09:45.999Z,100009.00
2023-01-02T12:12:55.039Z,100008.44
2023-01-02T12:15:36.025Z,100014.66
2023-01-02T12:18:25.417Z,100010.03
2023-01-02T12:21:06.046Z,100006.38
2023-01-02T12:23:51.446Z,100015.47
2023-01-02T12:26:34.767Z,100009.47
2023-01-02T12:29:09.267Z,99999.59
2023-01-02T12:31:55.312Z,100002.69
2023-01-02T12:35:06.039Z,100004.00
2023-01-02T12:37:45.111Z,100005.03
2023-01-02T12:40:43.790Z,99994.63
2023-01-02T12:43:33.027Z,99990.44
2023-01-02T12:46:16.974Z,99992.47
2023-01-02T12:49:09.141Z,99994.47
2023-01-02T12:52:01.361Z,100002.38
2023-01-02T12:54:38.030Z,100007.31
2023-01-02T12:57:52.040Z,99994.25
2023-01-02T13:01:00.440Z,100003.69
2023-01-02T13:03:53.779Z,99997.47
2023-01-02T13:07:09.021Z,99998.47
2023-01-02T13:09:42.160Z,99988.06
2023-01-02T13:12:30.186Z,99988.78
2023-01-02T13:15:19.191Z,99994.31
2023-01-02T13:18:17.069Z,99994.09
2023-01-02T13:20:46.765Z,99994.88
2023-01-02T13:23:34.064Z,99992.78
2023-01-02T13:26:14.803Z,100009.09
2023-01-02T13:28:54.205Z,100010.97
2023-01-02T13:31:56.763Z,100008.44
2023-01-02T13:34:32.246Z,100007.63
2023-01-02T13:37:06.359Z,100017.91
2023-01-02T13:39:43.028Z,100010.09
2023-01-02T13:42:21.072Z,100011.44
2023-01-02T13:44:54.153Z,100004.66
2023-01-02T13:47:34.665Z,100007.78
2023-01-02T13:50:23.288Z,100009.88
2023-01-02T13:53:30.234Z,99998.16
2023-01-02T13:56:05.213Z,100004.97
2023-01-02T13:58:37.739Z,100009.22
2023-01-02T14:01:24.117Z,100010.81
2023-01-02T14:04:09.669Z,100017.38
2023-01-02T14:06:42.078Z,100015.53
2023-01-02T14:09:15.233Z,100011.38
2023-01-02T14:11:55.458Z,100017.44
2023-01-02T14:14:50.484Z,100016.25
2023-01-02T14:17:52.006Z,100016.59
2023-01-02T14:20:18.846Z,100018.22
2023-01-02T14:28:47.025Z,100020.53
2023-01-02T14:31:24.274Z,100021.00
2023-01-02T14:33:55.140Z,100014.56
2023-01-02T14:36:36.246Z,100018.38
2023-01-02T14:39:18.050Z,100012.72
2023-01-02T14:41:51.405Z,100022.56
2023-01-02T14:44:18.976Z,100017.72
2023-01-02T14:46:46.062Z,100023.50
2023-01-02T14:49:25.350Z,100025.72
2023-01-02T14:51:59.359Z,100021.44
2023-01-02T14:54:32.966Z,100011.09
2023-01-02T14:57:24.227Z,100008.81
2023-01-02T14:59:55.167Z,100014.28
2023-01-02T15:02:30.923Z,100018.44
2023-01-02T15:05:06.330Z,100013.72
2023-01-02T15:07:40.843Z,100020.84
2023-01-02T15:10:23.037Z,100029.34
2023-01-02T15:12:59.820Z,100021.00
2023-01-02T15:15:28.618Z,100027.19
2023-01-02T15:18:05.412Z,100027.75
2023-01-02T15:20:33.556Z,100029.91
2023-01-02T15:23:00.665Z,100030.13
2023-01-02T15:25:37.185Z,100030.94
2023-01-02T15:28:06.249Z,100034.00
2023-01-02T15:30:39.035Z,100038.78
2023-01-02T15:33:32.417Z,100041.41
2023-01-02T15:36:11.049Z,100039.25
2023-01-02T15:39:26.109Z,100042.25
2023-01-02T15:41:55.764Z,100045.50
2023-01-02T15:44:24.999Z,100048.19
2023-01-02T15:46:52.841Z,100053.63
2023-01-02T15:49:22.234Z,100050.25
2023-01-02T15:51:49.582Z,100062.22
2023-01-02T15:54:18.187Z,100056.81
2023-01-02T15:56:45.295Z,100057.34
2023-01-02T15:59:33.835Z,100062.53
2023-01-02T16:02:01.094Z,100059.47
2023-01-02T16:04:31.326Z,100059.47
2023-01-02T16:13:23.181Z,100076.31
2023-01-02T16:16:15.148Z,100070.16
2023-01-02T16:18:47.224Z,100076.47
2023-01-02T16:21:16.456Z,100073.31
2023-01-02T16:23:55.128Z,100074.41
2023-01-02T16:26:37.912Z,100070.78
2023-01-02T16:29:06.086Z,100073.50
2023-01-02T16:32:01.834Z,100076.00
2023-01-02T16:34:36.695Z,100071.09
2023-01-02T16:37:15.520Z,100074.34
2023-01-02T16:39:49.130Z,100075.78
2023-01-02T16:42:19.557Z,100077.59
2023-01-02T16:44:54.256Z,100080.72
2023-01-02T16:47:27.696Z,100081.38
2023-01-02T16:49:55.594Z,100088.81
2023-01-02T16:52:22.956Z,100086.03
2023-01-02T16:54:54.091Z,100099.56
2023-01-02T16:57:24.174Z,100095.34
2023-01-02T16:59:51.418Z,100101.19
2023-01-02T17:02:18.227Z,100105.16
2023-01-02T17:04:47.097Z,100113.28
2023-01-02T17:07:20.079Z,100119.28
2023-01-02T17:09:49.165Z,100129.03
2023-01-02T17:12:16.615Z,100132.47
2023-01-02T17:14:43.523Z,100141.41
2023-01-02T17:17:12.120Z,100142.59
2023-01-02T17:19:38.911Z,100156.66
2023-01-02T17:22:07.596Z,100156.66
2023-01-02T17:24:34.435Z,100164.81
2023-01-02T17:27:01.446Z,100157.13
2023-01-02T17:29:31.043Z,100161.56
2023-01-02T17:31:58.419Z,100174.94
2023-01-02T17:37:18.082Z,100179.78
2023-01-02T17:39:45.078Z,100195.91
2023-01-02T17:42:11.892Z,100197.06
2023-01-02T17:47:59.884Z,100204.31
2023-01-02T17:50:23.732Z,100209.78
2023-01-02T17:52:56.260Z,100215.13
2023-01-02T17:55:23.503Z,100223.88
2023-01-02T17:57:50.394Z,100216.97
2023-01-02T18:00:18.836Z,100209.44
2023-01-02T18:02:49.924Z,100211.50
2023-01-02T18:05:16.972Z,100214.81
2023-01-02T18:07:45.071Z,100228.47
2023-01-02T18:10:14.828Z,100240.94
2023-01-02T18:12:47.655Z,100238.81
2023-01-02T18:15:16.006Z,100233.28
2023-01-02T18:17:48.083Z,100241.09
2023-01-02T18:20:18.556Z,100237.03
2023-01-02T18:22:49.983Z,100234.69
2023-01-02T18:25:27.993Z,100230.97
2023-01-02T18:28:21.102Z,100232.44
2023-01-02T18:30:58.360Z,100234.50
2023-01-02T18:33:27.324Z,100242.88
2023-01-02T18:36:08.259Z,100242.06
2023-01-02T18:38:38.511Z,100250.13
2023-01-02T18:41:25.576Z,100261.66
2023-01-02T18:44:07.421Z,100266.53
2023-01-02T18:47:01.735Z,100276.97
2023-01-02T18:49:27.185Z,100274.16
2023-01-02T18:52:12.430Z,100275.59
2023-01-02T18:54:43.455Z,100276.88
2023-01-02T18:57:18.582Z,100286.03
2023-01-02T18:59:52.392Z,100285.03
2023-01-02T19:02:32.146Z,100292.66
2023-01-02T19:05:00.417Z,100289.66
2023-01-02T19:07:33.042Z,100275.59
2023-01-02T19:10:24.715Z,100273.91
2023-01-02T19:12:53.227Z,100274.81
2023-01-02T19:15:30.982Z,100280.34
2023-01-02T19:18:37.506Z,100270.88
2023-01-02T19:21:31.692Z,100270.56
2023-01-02T19:24:30.598Z,100257.75
2023-01-02T19:26:59.413Z,100258.66
2023-01-02T19:29:31.820Z,100261.84
2023-01-02T19:32:23.741Z,100262.28
2023-01-02T19:34:54.042Z,100266.91
2023-01-02T19:37:37.717Z,100257.75
2023-01-02T19:40:21.113Z,100265.34
2023-01-02T19:42:54.518Z,100260.69
2023-01-02T19:45:27.089Z,100252.78
2023-01-02T19:47:54.398Z,100257.66
2023-01-02T19:50:25.785Z,100254.28
2023-01-02T19:52:53.651Z,100254.72
2023-01-02T19:55:20.773Z,100256.63
2023-01-02T19:57:49.445Z,100258.34
2023-01-02T20:00:17.511Z,100254.59
2023-01-02T20:02:45.962Z,100255.19
2023-01-02T20:05:20.828Z,100270.69
2023-01-02T20:07:50.257Z,100265.03
2023-01-02T20:10:19.483Z,100258.25
2023-01-02T20:12:48.799Z,100273.41
2023-01-02T20:15:23.130Z,100266.16
2023-01-02T20:17:51.807Z,100263.09
2023-01-02T20:20:26.169Z,100261.84
2023-01-02T20:22:53.925Z,100260.59
2023-01-02T20:25:22.264Z,100263.88
2023-01-02T20:27:49.850Z,100259.69
2023-01-02T20:30:23.724Z,100251.53
2023-01-02T20:32:54.587Z,100252.34
2023-01-02T20:35:24.175Z,100257.78
2023-01-02T20:37:52.416Z,100256.88
2023-01-02T20:40:20.187Z,100246.47
2023-01-02T20:42:49.654Z,100250.69
2023-01-02T20:45:16.695Z,100244.00
2023-01-02T20:47:46.426Z,100251.63
2023-01-02T20:50:14.017Z,100254.81
2023-01-02T20:52:42.380Z,100253.78
2023-01-02T20:55:12.664Z,100254.00
2023-01-02T20:57:41.798Z,100255.84
2023-01-02T21:00:09.934Z,100255.25
2023-01-02T21:02:39.820Z,100254.81
2023-01-02T21:05:07.872Z,100251.66
2023-01-02T21:07:37.785Z,100252.78
2023-01-02T21:10:07.011Z,100245.78
2023-01-02T21:12:34.727Z,100255.06
2023-01-02T21:15:01.733Z,100258.00
2023-01-02T21:17:29.724Z,100260.38
2023-01-02T21:19:57.487Z,100268.41
2023-01-02T21:25:18.276Z,100267.84
2023-01-02T21:27:45.659Z,100268.16
2023-01-02T21:30:12.731Z,100282.09
2023-01-02T21:32:41.386Z,100287.63
2023-01-02T21:35:08.402Z,100284.88
2023-01-02T21:37:37.110Z,100288.03
2023-01-02T21:40:05.346Z,100296.41
2023-01-02T21:42:38.034Z,100306.34
2023-01-02T21:45:09.051Z,100305.69
2023-01-02T21:47:36.012Z,100303.97
2023-01-02T21:50:32.346Z,100307.69
2023-01-02T21:53:00.020Z,100297.28
2023-01-02T21:55:27.071Z,100297.88
2023-01-02T22:00:43.064Z,100307.09
2023-01-02T22:03:11.084Z,100306.09
2023-01-02T22:05:38.063Z,100296.59
2023-01-02T22:08:06.654Z,100299.53
2023-01-02T22:10:37.058Z,100308.34
2023-01-02T22:13:03.886Z,100297.28
2023-01-02T22:15:30.612Z,100308.69
2023-01-02T22:17:57.901Z,100308.34
2023-01-02T22:20:24.650Z,100318.16
2023-01-02T22:22:56.070Z,100321.34
2023-01-02T22:25:22.841Z,100313.56
2023-01-02T22:27:51.139Z,100318.59
2023-01-02T22:30:27.401Z,100320.56
2023-01-02T22:33:00.239Z,100319.66
2023-01-02T22:35:27.684Z,100319.81
2023-01-02T22:37:55.410Z,100316.84
2023-01-02T22:40:22.410Z,100314.38
2023-01-02T22:43:05.957Z,100305.88
2023-01-02T22:45:50.081Z,100310.53
2023-01-02T22:48:23.663Z,100310.31
2023-01-02T22:50:53.067Z,100311.56
2023-01-02T22:53:24.902Z,100316.09
2023-01-02T22:55:57.053Z,100318.69
2023-01-02T22:58:25.087Z,100313.47
2023-01-02T23:01:22.146Z,100321.13
2023-01-02T23:03:49.258Z,100314.03
2023-01-02T23:06:21.908Z,100317.91
2023-01-02T23:08:49.426Z,100310.44
2023-01-02T23:11:16.389Z,100316.44
2023-01-02T23:13:43.819Z,100314.03
2023-01-02T23:16:11.145Z,100316.88
2023-01-02T23:18:38.207Z,100316.63
2023-01-02T23:21:08.688Z,100317.66
2023-01-02T23:23:35.587Z,100322.94
2023-01-02T23:26:05.321Z,100326.00
2023-01-02T23:29:05.180Z,100317.75
2023-01-02T23:31:22.168Z,100327.50
2023-01-02T23:33:51.090Z,100312.34
2023-01-02T23:36:17.935Z,100315.50
2023-01-02T23:38:44.824Z,100314.38
2023-01-02T23:41:11.659Z,100319.81
2023-01-02T23:43:38.556Z,100313.03
2023-01-02T23:46:05.504Z,100309.06
2023-01-02T23:48:32.552Z,100309.84
2023-01-02T23:51:00.482Z,100310.34
2023-01-02T23:53:28.158Z,100311.22
2023-01-02T23:55:56.115Z,100309.84
2023-01-02T23:58:23.399Z,100309.19
